sensor_id;sensor_type;location;lat;lon;timestamp;P1;durP1;ratioP1;P2;durP2;ratioP2
13267;SDS011;6702;47.068;15.458;2022-12-07T00:02:14;14.30;;;11.20;;
13267;SDS011;6702;47.068;15.458;2022-12-07T00:05:17;14.60;;;10.77;;
13267;SDS011;6702;47.068;15.458;2022-12-07T00:08:22;14.97;;;11.37;;
13267;SDS011;6702;47.068;15.458;2022-12-07T00:11:25;12.90;;;11.40;;
13267;SDS011;6702;47.068;15.458;2022-12-07T00:14:28;12.70;;;10.77;;
13267;SDS011;6702;47.068;15.458;2022-12-07T00:17:32;14.63;;;11.40;;
13267;SDS011;6702;47.068;15.458;2022-12-07T00:20:36;14.90;;;12.20;;
13267;SDS011;6702;47.068;15.458;2022-12-07T00:23:41;17.17;;;10.57;;
13267;SDS011;6702;47.068;15.458;2022-12-07T00:26:45;16.20;;;10.63;;
13267;SDS011;6702;47.068;15.458;2022-12-07T00:29:48;14.23;;;10.60;;
13267;SDS011;6702;47.068;15.458;2022-12-07T00:36:02;19.40;;;11.00;;
13267;SDS011;6702;47.068;15.458;2022-12-07T00:46:31;11.93;;;9.40;;
13267;SDS011;6702;47.068;15.458;2022-12-07T00:49:34;12.70;;;9.97;;
13267;SDS011;6702;47.068;15.458;2022-12-07T00:52:37;11.17;;;9.20;;
13267;SDS011;6702;47.068;15.458;2022-12-07T00:55:40;12.73;;;10.43;;
13267;SDS011;6702;47.068;15.458;2022-12-07T00:58:48;13.47;;;9.77;;
13267;SDS011;6702;47.068;15.458;2022-12-07T01:01:54;14.23;;;11.07;;
13267;SDS011;6702;47.068;15.458;2022-12-07T01:04:57;12.17;;;10.20;;
13267;SDS011;6702;47.068;15.458;2022-12-07T01:08:01;11.70;;;9.83;;
13267;SDS011;6702;47.068;15.458;2022-12-07T01:11:05;16.10;;;12.63;;
13267;SDS011;6702;47.068;15.458;2022-12-07T01:14:10;20.13;;;13.20;;
13267;SDS011;6702;47.068;15.458;2022-12-07T01:17:14;14.83;;;11.57;;
13267;SDS011;6702;47.068;15.458;2022-12-07T01:20:17;16.87;;;12.10;;
13267;SDS011;6702;47.068;15.458;2022-12-07T01:23:21;13.47;;;10.60;;
13267;SDS011;6702;47.068;15.458;2022-12-07T01:26:24;15.67;;;11.87;;
13267;SDS011;6702;47.068;15.458;2022-12-07T01:29:27;13.67;;;10.07;;
13267;SDS011;6702;47.068;15.458;2022-12-07T01:32:32;12.00;;;10.03;;
13267;SDS011;6702;47.068;15.458;2022-12-07T01:35:35;18.60;;;12.00;;
13267;SDS011;6702;47.068;15.458;2022-12-07T01:38:38;14.03;;;11.67;;
13267;SDS011;6702;47.068;15.458;2022-12-07T01:41:41;15.50;;;11.30;;
13267;SDS011;6702;47.068;15.458;2022-12-07T01:48:40;17.73;;;12.70;;
13267;SDS011;6702;47.068;15.458;2022-12-07T01:51:45;15.67;;;12.50;;
13267;SDS011;6702;47.068;15.458;2022-12-07T01:54:51;14.23;;;10.67;;
13267;SDS011;6702;47.068;15.458;2022-12-07T01:57:56;15.53;;;12.27;;
13267;SDS011;6702;47.068;15.458;2022-12-07T02:00:59;16.37;;;12.67;;
13267;SDS011;6702;47.068;15.458;2022-12-07T02:04:05;17.20;;;12.63;;
13267;SDS011;6702;47.068;15.458;2022-12-07T02:07:08;18.47;;;11.50;;
13267;SDS011;6702;47.068;15.458;2022-12-07T02:10:12;17.73;;;12.27;;
13267;SDS011;6702;47.068;15.458;2022-12-07T02:13:17;17.17;;;11.40;;
13267;SDS011;6702;47.068;15.458;2022-12-07T02:16:25;18.83;;;13.53;;
13267;SDS011;6702;47.068;15.458;2022-12-07T02:23:32;12.03;;;10.60;;
13267;SDS011;6702;47.068;15.458;2022-12-07T02:27:05;15.97;;;11.73;;
13267;SDS011;6702;47.068;15.458;2022-12-07T02:30:19;14.60;;;12.27;;
13267;SDS011;6702;47.068;15.458;2022-12-07T02:33:24;17.00;;;11.80;;
13267;SDS011;6702;47.068;15.458;2022-12-07T02:36:31;19.07;;;12.17;;
13267;SDS011;6702;47.068;15.458;2022-12-07T02:39:41;13.70;;;10.80;;
13267;SDS011;6702;47.068;15.458;2022-12-07T02:42:48;17.73;;;12.03;;
13267;SDS011;6702;47.068;15.458;2022-12-07T02:45:56;14.53;;;10.63;;
13267;SDS011;6702;47.068;15.458;2022-12-07T02:49:04;15.70;;;12.17;;
13267;SDS011;6702;47.068;15.458;2022-12-07T02:52:09;13.20;;;10.10;;
13267;SDS011;6702;47.068;15.458;2022-12-07T02:55:12;14.37;;;10.47;;
13267;SDS011;6702;47.068;15.458;2022-12-07T02:58:20;13.17;;;10.17;;
13267;SDS011;6702;47.068;15.458;2022-12-07T03:01:34;13.20;;;10.63;;
13267;SDS011;6702;47.068;15.458;2022-12-07T03:04:49;12.00;;;10.70;;
13267;SDS011;6702;47.068;15.458;2022-12-07T03:08:04;11.37;;;9.03;;
13267;SDS011;6702;47.068;15.458;2022-12-07T03:11:15;16.23;;;9.67;;
13267;SDS011;6702;47.068;15.458;2022-12-07T03:14:23;14.73;;;10.07;;
13267;SDS011;6702;47.068;15.458;2022-12-07T03:17:33;14.53;;;9.43;;
13267;SDS011;6702;47.068;15.458;2022-12-07T03:20:42;10.63;;;8.23;;
13267;SDS011;6702;47.068;15.458;2022-12-07T03:23:49;12.60;;;10.33;;
13267;SDS011;6702;47.068;15.458;2022-12-07T03:26:58;11.33;;;8.43;;
13267;SDS011;6702;47.068;15.458;2022-12-07T03:30:05;8.23;;;7.30;;
13267;SDS011;6702;47.068;15.458;2022-12-07T03:33:12;10.53;;;7.90;;
13267;SDS011;6702;47.068;15.458;2022-12-07T03:36:21;13.67;;;8.77;;
13267;SDS011;6702;47.068;15.458;2022-12-07T03:39:30;13.70;;;8.90;;
13267;SDS011;6702;47.068;15.458;2022-12-07T03:42:38;10.40;;;8.20;;
13267;SDS011;6702;47.068;15.458;2022-12-07T03:45:42;11.43;;;8.37;;
13267;SDS011;6702;47.068;15.458;2022-12-07T03:48:53;10.80;;;7.50;;
13267;SDS011;6702;47.068;15.458;2022-12-07T03:52:02;9.47;;;8.47;;
13267;SDS011;6702;47.068;15.458;2022-12-07T03:55:13;8.80;;;7.67;;
13267;SDS011;6702;47.068;15.458;2022-12-07T03:58:20;8.77;;;7.17;;
13267;SDS011;6702;47.068;15.458;2022-12-07T04:01:25;9.33;;;7.20;;
13267;SDS011;6702;47.068;15.458;2022-12-07T04:04:31;10.40;;;8.03;;
13267;SDS011;6702;47.068;15.458;2022-12-07T04:07:35;10.47;;;8.33;;
13267;SDS011;6702;47.068;15.458;2022-12-07T04:10:38;8.27;;;6.67;;
13267;SDS011;6702;47.068;15.458;2022-12-07T04:13:42;9.00;;;7.40;;
13267;SDS011;6702;47.068;15.458;2022-12-07T04:17:02;7.73;;;6.80;;
13267;SDS011;6702;47.068;15.458;2022-12-07T04:20:07;11.37;;;9.07;;
13267;SDS011;6702;47.068;15.458;2022-12-07T04:23:12;9.53;;;7.40;;
13267;SDS011;6702;47.068;15.458;2022-12-07T04:26:15;10.80;;;7.67;;
13267;SDS011;6702;47.068;15.458;2022-12-07T04:29:18;10.47;;;7.97;;
13267;SDS011;6702;47.068;15.458;2022-12-07T04:32:21;11.13;;;8.57;;
13267;SDS011;6702;47.068;15.458;2022-12-07T04:35:26;8.20;;;7.37;;
13267;SDS011;6702;47.068;15.458;2022-12-07T04:38:29;12.20;;;8.60;;
13267;SDS011;6702;47.068;15.458;2022-12-07T04:41:32;9.67;;;7.63;;
13267;SDS011;6702;47.068;15.458;2022-12-07T04:44:36;10.43;;;9.13;;
13267;SDS011;6702;47.068;15.458;2022-12-07T04:47:39;9.83;;;8.20;;
13267;SDS011;6702;47.068;15.458;2022-12-07T04:50:44;12.00;;;8.50;;
13267;SDS011;6702;47.068;15.458;2022-12-07T04:53:49;9.97;;;8.97;;
13267;SDS011;6702;47.068;15.458;2022-12-07T04:56:53;10.30;;;8.53;;
13267;SDS011;6702;47.068;15.458;2022-12-07T04:59:56;10.47;;;8.20;;
13267;SDS011;6702;47.068;15.458;2022-12-07T05:02:59;9.70;;;8.70;;
13267;SDS011;6702;47.068;15.458;2022-12-07T05:06:04;11.00;;;7.97;;
13267;SDS011;6702;47.068;15.458;2022-12-07T05:09:13;11.27;;;10.07;;
13267;SDS011;6702;47.068;15.458;2022-12-07T05:12:16;22.93;;;19.37;;
13267;SDS011;6702;47.068;15.458;2022-12-07T05:15:19;11.17;;;9.50;;
13267;SDS011;6702;47.068;15.458;2022-12-07T05:18:23;10.30;;;9.30;;
13267;SDS011;6702;47.068;15.458;2022-12-07T05:21:27;12.80;;;9.33;;
13267;SDS011;6702;47.068;15.458;2022-12-07T05:24:30;11.27;;;10.10;;
13267;SDS011;6702;47.068;15.458;2022-12-07T05:27:33;11.40;;;10.27;;
13267;SDS011;6702;47.068;15.458;2022-12-07T05:30:36;10.70;;;9.60;;
13267;SDS011;6702;47.068;15.458;2022-12-07T05:33:40;10.33;;;8.97;;
13267;SDS011;6702;47.068;15.458;2022-12-07T05:36:44;9.97;;;9.00;;
13267;SDS011;6702;47.068;15.458;2022-12-07T05:39:47;9.87;;;8.13;;
13267;SDS011;6702;47.068;15.458;2022-12-07T05:42:50;17.50;;;9.80;;
13267;SDS011;6702;47.068;15.458;2022-12-07T05:45:53;9.50;;;7.80;;
13267;SDS011;6702;47.068;15.458;2022-12-07T05:48:57;9.77;;;8.60;;
13267;SDS011;6702;47.068;15.458;2022-12-07T05:52:01;11.40;;;8.80;;
13267;SDS011;6702;47.068;15.458;2022-12-07T05:55:05;11.43;;;9.40;;
13267;SDS011;6702;47.068;15.458;2022-12-07T05:58:09;10.40;;;8.67;;
13267;SDS011;6702;47.068;15.458;2022-12-07T06:01:30;10.83;;;8.90;;
13267;SDS011;6702;47.068;15.458;2022-12-07T06:04:34;13.87;;;8.80;;
13267;SDS011;6702;47.068;15.458;2022-12-07T06:07:40;11.20;;;8.33;;
13267;SDS011;6702;47.068;15.458;2022-12-07T06:10:43;10.00;;;8.03;;
13267;SDS011;6702;47.068;15.458;2022-12-07T06:13:46;9.77;;;7.70;;
13267;SDS011;6702;47.068;15.458;2022-12-07T06:16:48;11.87;;;9.00;;
13267;SDS011;6702;47.068;15.458;2022-12-07T06:19:52;11.77;;;7.83;;
13267;SDS011;6702;47.068;15.458;2022-12-07T06:22:56;9.43;;;8.43;;
13267;SDS011;6702;47.068;15.458;2022-12-07T06:25:59;9.67;;;8.30;;
13267;SDS011;6702;47.068;15.458;2022-12-07T06:29:02;12.83;;;9.37;;
13267;SDS011;6702;47.068;15.458;2022-12-07T06:32:06;10.57;;;8.77;;
13267;SDS011;6702;47.068;15.458;2022-12-07T06:35:09;11.47;;;9.07;;
13267;SDS011;6702;47.068;15.458;2022-12-07T06:38:13;11.70;;;9.03;;
13267;SDS011;6702;47.068;15.458;2022-12-07T06:41:16;11.80;;;9.90;;
13267;SDS011;6702;47.068;15.458;2022-12-07T06:44:20;11.17;;;9.90;;
13267;SDS011;6702;47.068;15.458;2022-12-07T06:47:24;11.93;;;10.60;;
13267;SDS011;6702;47.068;15.458;2022-12-07T06:50:46;11.93;;;10.07;;
13267;SDS011;6702;47.068;15.458;2022-12-07T06:53:57;14.00;;;11.80;;
13267;SDS011;6702;47.068;15.458;2022-12-07T06:57:00;14.90;;;12.13;;
13267;SDS011;6702;47.068;15.458;2022-12-07T07:00:03;13.40;;;12.10;;
13267;SDS011;6702;47.068;15.458;2022-12-07T07:03:07;13.27;;;10.70;;
13267;SDS011;6702;47.068;15.458;2022-12-07T07:06:11;11.97;;;10.23;;
13267;SDS011;6702;47.068;15.458;2022-12-07T07:09:16;12.30;;;9.87;;
13267;SDS011;6702;47.068;15.458;2022-12-07T07:12:20;17.20;;;11.70;;
13267;SDS011;6702;47.068;15.458;2022-12-07T07:15:23;13.80;;;11.53;;
13267;SDS011;6702;47.068;15.458;2022-12-07T07:18:26;14.63;;;10.87;;
13267;SDS011;6702;47.068;15.458;2022-12-07T07:21:29;13.03;;;11.10;;
13267;SDS011;6702;47.068;15.458;2022-12-07T07:24:34;13.23;;;11.17;;
13267;SDS011;6702;47.068;15.458;2022-12-07T07:27:37;12.20;;;10.60;;
13267;SDS011;6702;47.068;15.458;2022-12-07T07:30:40;13.27;;;10.37;;
13267;SDS011;6702;47.068;15.458;2022-12-07T07:33:44;12.07;;;10.77;;
13267;SDS011;6702;47.068;15.458;2022-12-07T07:36:47;15.10;;;11.73;;
13267;SDS011;6702;47.068;15.458;2022-12-07T07:39:52;16.80;;;11.33;;
13267;SDS011;6702;47.068;15.458;2022-12-07T07:42:55;12.90;;;11.30;;
13267;SDS011;6702;47.068;15.458;2022-12-07T07:45:59;17.30;;;11.30;;
13267;SDS011;6702;47.068;15.458;2022-12-07T07:49:02;14.43;;;10.60;;
13267;SDS011;6702;47.068;15.458;2022-12-07T07:52:05;14.50;;;12.37;;
13267;SDS011;6702;47.068;15.458;2022-12-07T07:55:10;13.40;;;10.73;;
13267;SDS011;6702;47.068;15.458;2022-12-07T07:58:14;13.43;;;9.97;;
13267;SDS011;6702;47.068;15.458;2022-12-07T08:01:17;13.50;;;10.77;;
13267;SDS011;6702;47.068;15.458;2022-12-07T08:04:21;15.23;;;11.53;;
13267;SDS011;6702;47.068;15.458;2022-12-07T08:07:24;13.70;;;11.70;;
13267;SDS011;6702;47.068;15.458;2022-12-07T08:10:30;13.60;;;11.70;;
13267;SDS011;6702;47.068;15.458;2022-12-07T08:13:34;13.57;;;10.67;;
13267;SDS011;6702;47.068;15.458;2022-12-07T08:16:37;13.87;;;10.43;;
13267;SDS011;6702;47.068;15.458;2022-12-07T08:19:40;12.60;;;10.93;;
13267;SDS011;6702;47.068;15.458;2022-12-07T08:22:43;18.00;;;12.17;;
13267;SDS011;6702;47.068;15.458;2022-12-07T08:25:48;17.20;;;12.70;;
13267;SDS011;6702;47.068;15.458;2022-12-07T08:28:52;15.97;;;11.70;;
13267;SDS011;6702;47.068;15.458;2022-12-07T08:31:55;15.50;;;11.50;;
13267;SDS011;6702;47.068;15.458;2022-12-07T08:34:58;12.93;;;10.93;;
13267;SDS011;6702;47.068;15.458;2022-12-07T08:38:02;16.17;;;12.80;;
13267;SDS011;6702;47.068;15.458;2022-12-07T08:41:07;15.47;;;12.80;;
13267;SDS011;6702;47.068;15.458;2022-12-07T08:44:10;19.20;;;14.73;;
13267;SDS011;6702;47.068;15.458;2022-12-07T08:47:13;22.33;;;15.67;;
13267;SDS011;6702;47.068;15.458;2022-12-07T08:50:17;18.53;;;15.43;;
13267;SDS011;6702;47.068;15.458;2022-12-07T08:53:20;17.00;;;13.57;;
13267;SDS011;6702;47.068;15.458;2022-12-07T08:56:25;16.60;;;12.60;;
13267;SDS011;6702;47.068;15.458;2022-12-07T08:59:29;17.20;;;12.93;;
13267;SDS011;6702;47.068;15.458;2022-12-07T09:02:33;14.30;;;12.43;;
13267;SDS011;6702;47.068;15.458;2022-12-07T09:05:36;13.00;;;10.13;;
13267;SDS011;6702;47.068;15.458;2022-12-07T09:08:40;14.27;;;10.57;;
13267;SDS011;6702;47.068;15.458;2022-12-07T09:11:49;14.70;;;10.77;;
13267;SDS011;6702;47.068;15.458;2022-12-07T09:14:52;14.70;;;13.10;;
13267;SDS011;6702;47.068;15.458;2022-12-07T09:17:55;18.63;;;11.60;;
13267;SDS011;6702;47.068;15.458;2022-12-07T09:20:58;13.90;;;10.50;;
13267;SDS011;6702;47.068;15.458;2022-12-07T09:24:02;11.83;;;9.90;;
13267;SDS011;6702;47.068;15.458;2022-12-07T09:27:07;16.70;;;11.20;;
13267;SDS011;6702;47.068;15.458;2022-12-07T09:30:10;12.70;;;10.70;;
13267;SDS011;6702;47.068;15.458;2022-12-07T09:33:13;11.30;;;9.40;;
13267;SDS011;6702;47.068;15.458;2022-12-07T09:36:23;12.47;;;9.47;;
13267;SDS011;6702;47.068;15.458;2022-12-07T09:39:30;16.67;;;10.37;;
13267;SDS011;6702;47.068;15.458;2022-12-07T09:42:35;11.83;;;9.93;;
13267;SDS011;6702;47.068;15.458;2022-12-07T09:45:41;13.00;;;10.00;;
13267;SDS011;6702;47.068;15.458;2022-12-07T09:48:49;9.70;;;8.73;;
13267;SDS011;6702;47.068;15.458;2022-12-07T09:51:59;11.93;;;9.80;;
13267;SDS011;6702;47.068;15.458;2022-12-07T09:55:08;11.73;;;10.63;;
13267;SDS011;6702;47.068;15.458;2022-12-07T09:58:18;11.60;;;10.40;;
13267;SDS011;6702;47.068;15.458;2022-12-07T10:01:24;9.97;;;8.90;;
13267;SDS011;6702;47.068;15.458;2022-12-07T10:04:27;8.43;;;7.53;;
13267;SDS011;6702;47.068;15.458;2022-12-07T10:07:30;9.83;;;8.83;;
13267;SDS011;6702;47.068;15.458;2022-12-07T10:10:34;13.23;;;11.93;;
13267;SDS011;6702;47.068;15.458;2022-12-07T10:13:42;12.30;;;10.40;;
13267;SDS011;6702;47.068;15.458;2022-12-07T10:16:47;12.50;;;9.30;;
13267;SDS011;6702;47.068;15.458;2022-12-07T10:19:50;14.03;;;10.93;;
13267;SDS011;6702;47.068;15.458;2022-12-07T10:22:54;23.13;;;13.50;;
13267;SDS011;6702;47.068;15.458;2022-12-07T10:25:59;23.50;;;14.80;;
13267;SDS011;6702;47.068;15.458;2022-12-07T10:29:28;23.47;;;15.97;;
13267;SDS011;6702;47.068;15.458;2022-12-07T10:32:33;23.80;;;16.87;;
13267;SDS011;6702;47.068;15.458;2022-12-07T10:35:38;24.50;;;17.00;;
13267;SDS011;6702;47.068;15.458;2022-12-07T10:38:47;26.30;;;17.60;;
13267;SDS011;6702;47.068;15.458;2022-12-07T10:41:53;30.37;;;18.50;;
13267;SDS011;6702;47.068;15.458;2022-12-07T10:45:09;26.73;;;20.43;;
13267;SDS011;6702;47.068;15.458;2022-12-07T10:48:17;23.50;;;18.43;;
13267;SDS011;6702;47.068;15.458;2022-12-07T10:51:30;22.17;;;16.20;;
13267;SDS011;6702;47.068;15.458;2022-12-07T10:54:42;25.93;;;17.30;;
13267;SDS011;6702;47.068;15.458;2022-12-07T10:57:56;21.53;;;16.53;;
13267;SDS011;6702;47.068;15.458;2022-12-07T11:01:12;24.43;;;17.90;;
13267;SDS011;6702;47.068;15.458;2022-12-07T11:04:23;25.43;;;17.23;;
13267;SDS011;6702;47.068;15.458;2022-12-07T11:07:34;22.30;;;16.10;;
13267;SDS011;6702;47.068;15.458;2022-12-07T11:10:44;20.40;;;16.37;;
13267;SDS011;6702;47.068;15.458;2022-12-07T11:13:54;22.03;;;16.43;;
13267;SDS011;6702;47.068;15.458;2022-12-07T11:17:07;23.93;;;17.00;;
13267;SDS011;6702;47.068;15.458;2022-12-07T11:20:21;20.57;;;17.60;;
13267;SDS011;6702;47.068;15.458;2022-12-07T11:23:48;24.40;;;19.20;;
13267;SDS011;6702;47.068;15.458;2022-12-07T11:27:02;22.33;;;17.60;;
13267;SDS011;6702;47.068;15.458;2022-12-07T11:30:17;21.20;;;15.60;;
13267;SDS011;6702;47.068;15.458;2022-12-07T11:33:25;23.53;;;16.67;;
13267;SDS011;6702;47.068;15.458;2022-12-07T11:36:36;19.70;;;15.80;;
13267;SDS011;6702;47.068;15.458;2022-12-07T11:39:44;20.97;;;16.43;;
13267;SDS011;6702;47.068;15.458;2022-12-07T11:42:52;18.77;;;16.60;;
13267;SDS011;6702;47.068;15.458;2022-12-07T11:46:02;21.20;;;15.53;;
13267;SDS011;6702;47.068;15.458;2022-12-07T11:49:10;20.57;;;15.20;;
13267;SDS011;6702;47.068;15.458;2022-12-07T11:52:22;23.13;;;14.70;;
13267;SDS011;6702;47.068;15.458;2022-12-07T11:55:32;20.27;;;15.70;;
13267;SDS011;6702;47.068;15.458;2022-12-07T11:58:46;20.00;;;16.10;;
13267;SDS011;6702;47.068;15.458;2022-12-07T12:01:55;22.53;;;17.23;;
13267;SDS011;6702;47.068;15.458;2022-12-07T12:05:05;22.23;;;14.73;;
13267;SDS011;6702;47.068;15.458;2022-12-07T12:08:16;21.13;;;15.00;;
13267;SDS011;6702;47.068;15.458;2022-12-07T12:11:47;23.70;;;13.57;;
13267;SDS011;6702;47.068;15.458;2022-12-07T12:15:36;20.90;;;14.50;;
13267;SDS011;6702;47.068;15.458;2022-12-07T12:19:01;20.93;;;14.40;;
13267;SDS011;6702;47.068;15.458;2022-12-07T12:22:19;24.07;;;17.70;;
13267;SDS011;6702;47.068;15.458;2022-12-07T12:25:26;23.00;;;17.10;;
13267;SDS011;6702;47.068;15.458;2022-12-07T12:28:34;22.80;;;16.27;;
13267;SDS011;6702;47.068;15.458;2022-12-07T12:32:04;22.47;;;15.40;;
13267;SDS011;6702;47.068;15.458;2022-12-07T12:35:28;20.00;;;17.80;;
13267;SDS011;6702;47.068;15.458;2022-12-07T12:38:35;22.87;;;18.20;;
13267;SDS011;6702;47.068;15.458;2022-12-07T12:45:20;19.57;;;15.30;;
13267;SDS011;6702;47.068;15.458;2022-12-07T12:48:27;18.27;;;14.70;;
13267;SDS011;6702;47.068;15.458;2022-12-07T12:51:36;20.63;;;14.53;;
13267;SDS011;6702;47.068;15.458;2022-12-07T12:54:56;16.10;;;12.33;;
13267;SDS011;6702;47.068;15.458;2022-12-07T13:01:43;19.00;;;16.50;;
13267;SDS011;6702;47.068;15.458;2022-12-07T13:04:51;19.20;;;14.50;;
13267;SDS011;6702;47.068;15.458;2022-12-07T13:07:56;17.77;;;15.97;;
13267;SDS011;6702;47.068;15.458;2022-12-07T13:11:16;18.57;;;16.57;;
13267;SDS011;6702;47.068;15.458;2022-12-07T13:17:59;17.83;;;15.77;;
13267;SDS011;6702;47.068;15.458;2022-12-07T13:21:39;23.40;;;16.80;;
13267;SDS011;6702;47.068;15.458;2022-12-07T13:24:45;15.87;;;14.00;;
13267;SDS011;6702;47.068;15.458;2022-12-07T13:27:50;22.03;;;17.50;;
13267;SDS011;6702;47.068;15.458;2022-12-07T13:31:00;22.40;;;17.30;;
13267;SDS011;6702;47.068;15.458;2022-12-07T13:34:28;17.60;;;15.13;;
13267;SDS011;6702;47.068;15.458;2022-12-07T13:37:33;23.50;;;17.03;;
13267;SDS011;6702;47.068;15.458;2022-12-07T13:40:39;21.13;;;15.60;;
13267;SDS011;6702;47.068;15.458;2022-12-07T13:43:44;16.43;;;14.73;;
13267;SDS011;6702;47.068;15.458;2022-12-07T13:46:54;20.13;;;15.27;;
13267;SDS011;6702;47.068;15.458;2022-12-07T13:50:20;19.30;;;15.43;;
13267;SDS011;6702;47.068;15.458;2022-12-07T13:53:25;18.93;;;15.77;;
13267;SDS011;6702;47.068;15.458;2022-12-07T13:56:32;17.57;;;12.97;;
13267;SDS011;6702;47.068;15.458;2022-12-07T13:59:41;20.23;;;16.37;;
13267;SDS011;6702;47.068;15.458;2022-12-07T14:02:54;19.20;;;14.70;;
13267;SDS011;6702;47.068;15.458;2022-12-07T14:06:10;18.67;;;15.50;;
13267;SDS011;6702;47.068;15.458;2022-12-07T14:09:18;19.70;;;14.90;;
13267;SDS011;6702;47.068;15.458;2022-12-07T14:12:24;21.10;;;16.47;;
13267;SDS011;6702;47.068;15.458;2022-12-07T14:15:30;18.60;;;14.77;;
13267;SDS011;6702;47.068;15.458;2022-12-07T14:18:36;18.00;;;15.47;;
13267;SDS011;6702;47.068;15.458;2022-12-07T14:21:41;22.30;;;15.60;;
13267;SDS011;6702;47.068;15.458;2022-12-07T14:24:44;20.17;;;15.93;;
13267;SDS011;6702;47.068;15.458;2022-12-07T14:27:49;21.00;;;16.63;;
13267;SDS011;6702;47.068;15.458;2022-12-07T14:30:58;18.77;;;15.30;;
13267;SDS011;6702;47.068;15.458;2022-12-07T14:34:01;22.03;;;14.93;;
13267;SDS011;6702;47.068;15.458;2022-12-07T14:37:06;18.70;;;15.00;;
13267;SDS011;6702;47.068;15.458;2022-12-07T14:40:12;20.93;;;15.73;;
13267;SDS011;6702;47.068;15.458;2022-12-07T14:43:17;25.97;;;17.40;;
13267;SDS011;6702;47.068;15.458;2022-12-07T14:46:22;18.87;;;17.00;;
13267;SDS011;6702;47.068;15.458;2022-12-07T14:49:26;19.37;;;16.83;;
13267;SDS011;6702;47.068;15.458;2022-12-07T14:52:32;21.07;;;18.70;;
13267;SDS011;6702;47.068;15.458;2022-12-07T14:55:56;25.57;;;17.60;;
13267;SDS011;6702;47.068;15.458;2022-12-07T14:58:59;19.80;;;16.40;;
13267;SDS011;6702;47.068;15.458;2022-12-07T15:02:04;24.70;;;17.83;;
13267;SDS011;6702;47.068;15.458;2022-12-07T15:05:07;19.53;;;15.70;;
13267;SDS011;6702;47.068;15.458;2022-12-07T15:08:16;24.37;;;19.80;;
13267;SDS011;6702;47.068;15.458;2022-12-07T15:11:20;37.00;;;18.33;;
13267;SDS011;6702;47.068;15.458;2022-12-07T15:14:23;21.50;;;17.20;;
13267;SDS011;6702;47.068;15.458;2022-12-07T15:17:28;23.37;;;17.60;;
13267;SDS011;6702;47.068;15.458;2022-12-07T15:20:32;20.40;;;15.97;;
13267;SDS011;6702;47.068;15.458;2022-12-07T15:23:36;25.43;;;17.40;;
13267;SDS011;6702;47.068;15.458;2022-12-07T15:26:39;23.53;;;17.37;;
13267;SDS011;6702;47.068;15.458;2022-12-07T15:29:42;23.77;;;17.23;;
13267;SDS011;6702;47.068;15.458;2022-12-07T15:32:49;24.20;;;16.93;;
13267;SDS011;6702;47.068;15.458;2022-12-07T15:35:53;22.53;;;15.47;;
13267;SDS011;6702;47.068;15.458;2022-12-07T15:38:56;24.23;;;18.10;;
13267;SDS011;6702;47.068;15.458;2022-12-07T15:42:15;24.50;;;19.67;;
13267;SDS011;6702;47.068;15.458;2022-12-07T15:45:18;24.63;;;17.87;;
13267;SDS011;6702;47.068;15.458;2022-12-07T15:48:23;26.27;;;16.50;;
13267;SDS011;6702;47.068;15.458;2022-12-07T15:51:29;26.50;;;17.97;;
13267;SDS011;6702;47.068;15.458;2022-12-07T15:54:32;18.10;;;15.60;;
13267;SDS011;6702;47.068;15.458;2022-12-07T15:57:36;18.50;;;16.27;;
13267;SDS011;6702;47.068;15.458;2022-12-07T16:00:40;23.40;;;16.87;;
13267;SDS011;6702;47.068;15.458;2022-12-07T16:03:45;23.77;;;17.87;;
13267;SDS011;6702;47.068;15.458;2022-12-07T16:06:48;23.03;;;18.03;;
13267;SDS011;6702;47.068;15.458;2022-12-07T16:09:52;25.73;;;17.77;;
13267;SDS011;6702;47.068;15.458;2022-12-07T16:12:55;23.13;;;16.30;;
13267;SDS011;6702;47.068;15.458;2022-12-07T16:16:01;23.30;;;16.63;;
13267;SDS011;6702;47.068;15.458;2022-12-07T16:19:07;20.60;;;16.53;;
13267;SDS011;6702;47.068;15.458;2022-12-07T16:22:12;23.80;;;15.93;;
13267;SDS011;6702;47.068;15.458;2022-12-07T16:25:16;20.57;;;15.10;;
13267;SDS011;6702;47.068;15.458;2022-12-07T16:28:20;17.20;;;14.23;;
13267;SDS011;6702;47.068;15.458;2022-12-07T16:31:24;25.37;;;14.77;;
13267;SDS011;6702;47.068;15.458;2022-12-07T16:34:30;18.33;;;15.30;;
13267;SDS011;6702;47.068;15.458;2022-12-07T16:37:34;23.40;;;20.50;;
13267;SDS011;6702;47.068;15.458;2022-12-07T16:40:37;20.57;;;15.07;;
13267;SDS011;6702;47.068;15.458;2022-12-07T16:43:41;20.43;;;17.13;;
13267;SDS011;6702;47.068;15.458;2022-12-07T16:46:44;19.20;;;14.77;;
13267;SDS011;6702;47.068;15.458;2022-12-07T16:49:49;23.50;;;17.13;;
13267;SDS011;6702;47.068;15.458;2022-12-07T16:52:53;21.10;;;15.30;;
13267;SDS011;6702;47.068;15.458;2022-12-07T16:55:56;17.80;;;15.40;;
13267;SDS011;6702;47.068;15.458;2022-12-07T16:59:00;18.37;;;15.60;;
13267;SDS011;6702;47.068;15.458;2022-12-07T17:02:03;18.60;;;16.43;;
13267;SDS011;6702;47.068;15.458;2022-12-07T17:05:09;21.00;;;15.73;;
13267;SDS011;6702;47.068;15.458;2022-12-07T17:08:13;19.10;;;14.50;;
13267;SDS011;6702;47.068;15.458;2022-12-07T17:11:17;19.03;;;16.50;;
13267;SDS011;6702;47.068;15.458;2022-12-07T17:14:23;21.27;;;14.90;;
13267;SDS011;6702;47.068;15.458;2022-12-07T17:17:43;20.80;;;16.73;;
13267;SDS011;6702;47.068;15.458;2022-12-07T17:20:49;23.67;;;15.83;;
13267;SDS011;6702;47.068;15.458;2022-12-07T17:23:52;17.40;;;15.00;;
13267;SDS011;6702;47.068;15.458;2022-12-07T17:26:55;16.33;;;14.03;;
13267;SDS011;6702;47.068;15.458;2022-12-07T17:29:58;22.70;;;19.30;;
13267;SDS011;6702;47.068;15.458;2022-12-07T17:33:01;27.90;;;25.17;;
13267;SDS011;6702;47.068;15.458;2022-12-07T17:36:10;21.00;;;18.80;;
13267;SDS011;6702;47.068;15.458;2022-12-07T17:39:15;35.77;;;27.93;;
13267;SDS011;6702;47.068;15.458;2022-12-07T17:42:20;37.40;;;29.20;;
13267;SDS011;6702;47.068;15.458;2022-12-07T17:45:41;26.90;;;21.23;;
13267;SDS011;6702;47.068;15.458;2022-12-07T17:48:47;26.37;;;23.47;;
13267;SDS011;6702;47.068;15.458;2022-12-07T17:51:55;29.97;;;22.73;;
13267;SDS011;6702;47.068;15.458;2022-12-07T17:55:15;22.40;;;19.20;;
13267;SDS011;6702;47.068;15.458;2022-12-07T17:58:19;27.30;;;23.97;;
13267;SDS011;6702;47.068;15.458;2022-12-07T18:01:23;20.83;;;17.60;;
13267;SDS011;6702;47.068;15.458;2022-12-07T18:04:35;19.80;;;17.40;;
13267;SDS011;6702;47.068;15.458;2022-12-07T18:07:39;23.37;;;19.47;;
13267;SDS011;6702;47.068;15.458;2022-12-07T18:10:43;24.03;;;18.00;;
13267;SDS011;6702;47.068;15.458;2022-12-07T18:13:50;21.53;;;17.80;;
13267;SDS011;6702;47.068;15.458;2022-12-07T18:16:54;21.30;;;15.87;;
13267;SDS011;6702;47.068;15.458;2022-12-07T18:19:57;21.57;;;17.40;;
13267;SDS011;6702;47.068;15.458;2022-12-07T18:23:02;21.07;;;17.10;;
13267;SDS011;6702;47.068;15.458;2022-12-07T18:26:06;19.47;;;16.60;;
13267;SDS011;6702;47.068;15.458;2022-12-07T18:29:12;18.93;;;16.67;;
13267;SDS011;6702;47.068;15.458;2022-12-07T18:32:17;17.23;;;14.50;;
13267;SDS011;6702;47.068;15.458;2022-12-07T18:35:21;17.60;;;15.37;;
13267;SDS011;6702;47.068;15.458;2022-12-07T18:38:28;21.20;;;16.27;;
13267;SDS011;6702;47.068;15.458;2022-12-07T18:41:35;20.87;;;16.63;;
13267;SDS011;6702;47.068;15.458;2022-12-07T18:44:40;20.00;;;17.90;;
13267;SDS011;6702;47.068;15.458;2022-12-07T18:47:45;21.03;;;17.70;;